Time;durP1;ratioP1;P1;durP2;ratioP2;P2;SDS_P1;SDS_P2;PMS_P1;PMS_P2;Temp;Humidity;BMP_temperature;BMP_pressure;BME280_temperature;BME280_humidity;BME280_pressure;Samples;Min_cycle;Max_cycle;Signal;HPM_P1;HPM_P2
2021/12/12 00:02:26;;;;;;;66.88;27.10;;;;;;;;;;4994083;28;20048;-72
2021/12/12 00:04:52;;;;;;;70.05;27.42;;;-2.40;99.90;;;;;;4996455;28;20041;-72
2021/12/12 00:07:20;;;;;;;69.22;26.27;;;-1.20;99.90;;;;;;4997135;28;20033;-73
2021/12/12 00:09:46;;;;;;;71.53;27.85;;;0.70;99.90;;;;;;4994138;28;20048;-72
2021/12/12 00:12:11;;;;;;;71.72;27.70;;;-1.40;99.90;;;;;;4995918;28;20022;-72
2021/12/12 00:14:37;;;;;;;74.78;30.40;;;-1.20;99.90;;;;;;4992535;28;20137;-72
2021/12/12 00:17:02;;;;;;;67.50;27.60;;;-0.60;99.90;;;;;;5003908;28;20032;-72
2021/12/12 00:19:28;;;;;;;72.28;27.58;;;-1.00;99.90;;;;;;5005111;28;20123;-72
2021/12/12 00:21:53;;;;;;;83.03;31.30;;;-1.20;99.90;;;;;;4996393;28;20079;-72
2021/12/12 00:24:19;;;;;;;67.97;28.25;;;-1.50;99.90;;;;;;4995895;28;20030;-72
2021/12/12 00:26:44;;;;;;;69.07;28.20;;;-1.30;99.90;;;;;;5000367;28;20804;-72
2021/12/12 00:29:10;;;;;;;85.80;29.75;;;-1.20;99.90;;;;;;5004200;28;20082;-72
2021/12/12 00:31:35;;;;;;;71.82;28.73;;;-1.10;99.90;;;;;;5005943;28;20029;-73
2021/12/12 00:34:01;;;;;;;78.20;29.48;;;-1.10;99.90;;;;;;4995793;28;20069;-72
2021/12/12 00:36:27;;;;;;;77.10;31.70;;;-0.90;99.90;;;;;;4989671;28;20053;-72
2021/12/12 00:38:52;;;;;;;69.68;29.77;;;-0.90;99.90;;;;;;5004673;28;20034;-72
2021/12/12 00:41:18;;;;;;;69.47;29.63;;;-0.90;99.90;;;;;;4988274;28;20828;-72
2021/12/12 00:43:43;;;;;;;69.40;27.50;;;-0.80;99.90;;;;;;4990596;28;20046;-72
2021/12/12 00:46:09;;;;;;;73.47;30.38;;;-0.80;99.90;;;;;;4997996;28;20038;-70
2021/12/12 00:48:34;;;;;;;65.05;27.80;;;-0.60;99.90;;;;;;4993488;28;20125;-71
2021/12/12 00:51:00;;;;;;;71.50;28.67;;;;;;;;;;5001321;28;20037;-71
2021/12/12 00:53:26;;;;;;;65.25;28.60;;;-1.00;99.90;;;;;;4995373;28;20034;-71
2021/12/12 00:55:51;;;;;;;59.88;26.77;;;0.00;99.90;;;;;;5000631;28;20083;-71
2021/12/12 00:58:17;;;;;;;62.20;26.98;;;-0.70;99.90;;;;;;4998910;28;20018;-71
2021/12/12 01:00:47;;;;;;;68.35;27.17;;;-0.70;99.90;;;;;;4994429;28;20046;-71
2021/12/12 01:03:14;;;;;;;65.85;28.08;;;-0.60;99.90;;;;;;4994766;28;20116;-72
2021/12/12 01:05:39;;;;;;;66.47;27.33;;;-0.60;99.90;;;;;;4990533;28;20774;-71
2021/12/12 01:08:05;;;;;;;65.32;25.48;;;0.10;99.90;;;;;;4997364;28;20034;-71
2021/12/12 01:10:30;;;;;;;65.60;28.08;;;-0.70;99.90;;;;;;4993954;28;20063;-71
2021/12/12 01:12:55;;;;;;;56.40;25.48;;;-0.60;99.90;;;;;;5001320;28;20788;-71
2021/12/12 01:15:21;;;;;;;62.10;26.13;;;-0.60;99.90;;;;;;4998212;28;20034;-71
2021/12/12 01:17:46;;;;;;;57.17;25.42;;;-0.50;99.90;;;;;;4998326;28;20034;-71
2021/12/12 01:20:12;;;;;;;59.15;26.15;;;-0.40;99.90;;;;;;4994369;28;20049;-70
2021/12/12 01:22:38;;;;;;;54.83;23.52;;;-0.50;99.90;;;;;;4995767;28;20025;-70
2021/12/12 01:25:05;;;;;;;51.70;23.63;;;-0.20;99.90;;;;;;4992757;28;20049;-71
2021/12/12 01:27:30;;;;;;;57.28;25.38;;;-0.50;99.90;;;;;;5002368;28;20026;-71
2021/12/12 01:29:56;;;;;;;56.95;25.40;;;-0.30;99.90;;;;;;5004326;28;20096;-71
2021/12/12 01:32:27;;;;;;;51.05;24.00;;;-0.40;99.90;;;;;;5002899;28;20044;-71
2021/12/12 01:34:53;;;;;;;50.90;22.58;;;-0.40;99.90;;;;;;4998207;28;20038;-72
2021/12/12 01:39:50;;;;;;;54.92;24.25;;;-0.40;99.90;;;;;;4994573;28;20034;-72
2021/12/12 01:42:16;;;;;;;49.03;23.67;;;-0.50;99.90;;;;;;5002306;28;20025;-69
2021/12/12 01:44:41;;;;;;;47.58;22.75;;;-0.40;99.90;;;;;;4995064;28;20045;-71
2021/12/12 01:47:07;;;;;;;48.05;22.02;;;-0.50;99.90;;;;;;4991374;28;20139;-70
2021/12/12 01:49:32;;;;;;;51.67;22.63;;;-0.80;99.90;;;;;;4992468;28;20030;-71
2021/12/12 01:51:58;;;;;;;47.10;22.63;;;-0.50;99.90;;;;;;4985587;28;20060;-70
2021/12/12 01:54:25;;;;;;;49.90;22.67;;;-0.80;99.90;;;;;;4999275;28;20034;-70
2021/12/12 01:56:54;;;;;;;53.88;22.42;;;;;;;;;;5002077;28;20888;-71
2021/12/12 01:59:19;;;;;;;47.13;21.65;;;-0.60;99.90;;;;;;4988217;28;20034;-71
2021/12/12 02:01:45;;;;;;;49.03;21.92;;;-0.70;99.90;;;;;;4995598;28;20048;-71
2021/12/12 02:04:10;;;;;;;49.85;22.38;;;-0.70;99.90;;;;;;4998640;28;20053;-70
2021/12/12 02:06:36;;;;;;;47.65;22.75;;;;;;;;;;4989397;28;20042;-70
2021/12/12 02:09:02;;;;;;;52.05;21.05;;;;;;;;;;4998795;28;20575;-71
2021/12/12 02:11:28;;;;;;;48.60;21.67;;;-0.80;99.90;;;;;;4995728;28;20052;-70
2021/12/12 02:13:53;;;;;;;51.55;23.02;;;-0.80;99.90;;;;;;5001403;28;20026;-70
2021/12/12 02:16:19;;;;;;;56.83;24.58;;;-0.90;99.90;;;;;;4978197;28;20448;-71
2021/12/12 02:18:48;;;;;;;58.88;24.05;;;;;;;;;;4996239;28;20048;-70
2021/12/12 02:21:22;;;;;;;52.63;23.27;;;-0.50;99.90;;;;;;4995809;28;20259;-71
2021/12/12 02:24:22;;;;;;;55.13;23.65;;;-1.00;99.90;;;;;;5000085;28;20042;-71
2021/12/12 02:37:30;;;;;;;47.70;22.33;;;-0.80;99.90;;;;;;4998164;28;20048;-71
2021/12/12 02:39:56;;;;;;;47.75;21.27;;;-1.20;99.90;;;;;;5005301;28;20287;-71
2021/12/12 02:42:22;;;;;;;54.65;24.33;;;-1.30;99.90;;;;;;5000813;28;20032;-71
2021/12/12 02:44:49;;;;;;;54.83;24.92;;;-1.20;99.90;;;;;;4991642;28;20032;-71
2021/12/12 02:47:17;;;;;;;54.55;24.15;;;-1.30;99.90;;;;;;4993185;28;20053;-71
2021/12/12 02:52:17;;;;;;;61.67;25.92;;;-1.00;99.90;;;;;;4997184;28;20514;-71
2021/12/12 02:54:43;;;;;;;63.55;25.60;;;-1.20;99.90;;;;;;4998229;28;20037;-71
2021/12/12 02:57:08;;;;;;;62.55;25.20;;;-1.00;99.90;;;;;;4996599;28;20037;-71
2021/12/12 02:59:34;;;;;;;55.22;24.77;;;-1.00;99.90;;;;;;4989176;28;20087;-71
2021/12/12 03:02:00;;;;;;;63.08;25.40;;;;;;;;;;4993304;28;20033;-71
2021/12/12 03:04:25;;;;;;;59.88;25.52;;;-0.80;99.90;;;;;;4993395;28;20034;-70
2021/12/12 03:06:51;;;;;;;62.10;25.92;;;-1.00;99.90;;;;;;4993658;28;20073;-71
2021/12/12 03:09:16;;;;;;;64.05;26.17;;;-1.20;99.90;;;;;;4999260;28;20033;-71
2021/12/12 03:11:41;;;;;;;62.53;27.23;;;-1.20;99.90;;;;;;4995192;28;20625;-70
2021/12/12 03:14:07;;;;;;;66.15;27.25;;;-0.90;99.90;;;;;;4997031;28;20042;-71
2021/12/12 03:16:32;;;;;;;57.13;24.70;;;-0.90;99.90;;;;;;4983934;28;20035;-71
2021/12/12 03:18:58;;;;;;;62.20;26.05;;;-0.90;99.90;;;;;;4996702;28;20549;-71
2021/12/12 03:21:30;;;;;;;66.03;25.67;;;-1.10;99.90;;;;;;4997335;28;20136;-71
2021/12/12 03:23:56;;;;;;;68.50;27.13;;;-0.90;99.90;;;;;;4994697;28;20672;-71
2021/12/12 03:26:21;;;;;;;66.78;27.20;;;-0.90;99.90;;;;;;4990817;28;20142;-71
2021/12/12 03:28:47;;;;;;;62.22;25.77;;;-0.90;99.90;;;;;;4990481;28;20026;-70
2021/12/12 03:31:12;;;;;;;56.38;24.60;;;-0.80;99.90;;;;;;4980152;28;20824;-71
2021/12/12 03:33:38;;;;;;;70.25;26.60;;;-0.80;99.90;;;;;;4989840;28;20494;-71
2021/12/12 03:36:03;;;;;;;69.10;25.52;;;-0.70;99.90;;;;;;4991400;28;20477;-71
2021/12/12 03:38:29;;;;;;;59.40;26.15;;;-0.80;99.90;;;;;;4993213;28;20037;-71
2021/12/12 03:40:54;;;;;;;58.72;25.13;;;-0.90;99.90;;;;;;4994059;28;20038;-71
2021/12/12 03:43:20;;;;;;;65.47;25.67;;;-0.90;99.90;;;;;;4987444;28;20076;-70
2021/12/12 03:45:45;;;;;;;71.32;27.40;;;-0.20;99.90;;;;;;4989943;28;20057;-71
2021/12/12 03:48:11;;;;;;;57.47;25.92;;;-0.90;99.90;;;;;;4991829;28;20469;-70
2021/12/12 03:50:36;;;;;;;65.55;27.85;;;-0.40;99.90;;;;;;4989874;28;20022;-70
2021/12/12 03:53:01;;;;;;;68.75;28.02;;;-0.40;99.90;;;;;;4992330;28;20037;-70
2021/12/12 03:55:27;;;;;;;77.90;33.55;;;-0.60;99.90;;;;;;4991659;28;20121;-71
2021/12/12 03:57:53;;;;;;;82.15;31.33;;;-0.70;99.90;;;;;;4984775;28;20034;-70
2021/12/12 04:00:18;;;;;;;83.50;33.05;;;-0.70;99.90;;;;;;4992241;28;20485;-70
2021/12/12 04:02:44;;;;;;;108.18;42.72;;;-0.90;99.90;;;;;;4989158;28;20042;-70
2021/12/12 04:05:09;;;;;;;124.35;48.08;;;-0.60;99.90;;;;;;4995463;28;20033;-71
2021/12/12 04:07:34;;;;;;;132.57;51.80;;;-1.00;99.90;;;;;;4995060;28;20030;-71
2021/12/12 04:10:00;;;;;;;101.30;40.75;;;-0.70;99.90;;;;;;4987600;28;20073;-71
2021/12/12 04:12:26;;;;;;;89.53;38.10;;;-0.80;99.90;;;;;;4996109;28;20505;-70
2021/12/12 04:14:51;;;;;;;73.60;32.97;;;-0.80;99.90;;;;;;4992591;28;20065;-70
2021/12/12 04:17:17;;;;;;;73.30;31.55;;;-0.90;99.90;;;;;;4995016;28;20068;-71
2021/12/12 04:19:42;;;;;;;69.22;29.77;;;-0.70;99.90;;;;;;4998558;28;20501;-71
2021/12/12 04:22:08;;;;;;;69.63;29.20;;;-0.80;99.90;;;;;;4990850;28;20074;-71
2021/12/12 04:24:33;;;;;;;70.15;30.48;;;-0.80;99.90;;;;;;4982906;28;20498;-71
2021/12/12 04:26:59;;;;;;;60.05;27.55;;;-0.60;99.90;;;;;;4998506;28;20061;-70
2021/12/12 04:29:25;;;;;;;62.42;27.95;;;-0.50;99.90;;;;;;4998384;28;20033;-71
2021/12/12 04:31:51;;;;;;;61.70;26.88;;;-0.60;99.90;;;;;;4995300;28;20033;-71
2021/12/12 04:34:16;;;;;;;59.35;25.25;;;-0.20;99.90;;;;;;4993711;28;20089;-71
2021/12/12 04:36:41;;;;;;;57.97;24.88;;;-0.40;99.90;;;;;;4987394;28;20908;-71
2021/12/12 04:39:07;;;;;;;52.92;23.83;;;-0.40;99.90;;;;;;4995609;28;20034;-70
2021/12/12 04:41:32;;;;;;;55.17;23.35;;;-0.50;99.90;;;;;;4991656;28;20164;-71
2021/12/12 04:43:58;;;;;;;53.63;24.52;;;-0.60;99.90;;;;;;4997523;28;20033;-70
2021/12/12 04:46:26;;;;;;;52.75;23.27;;;-0.40;99.90;;;;;;4988210;28;20034;-71
2021/12/12 04:51:36;;;;;;;51.28;21.80;;;-0.40;99.90;;;;;;4984629;28;20121;-71
2021/12/12 04:54:01;;;;;;;46.25;21.60;;;-0.50;99.90;;;;;;4994474;28;20038;-71
2021/12/12 04:56:27;;;;;;;48.03;21.13;;;-0.70;99.90;;;;;;4994537;28;20042;-71
2021/12/12 04:58:52;;;;;;;47.15;22.05;;;-0.80;99.90;;;;;;4999488;28;20040;-71
2021/12/12 05:01:18;;;;;;;43.70;20.83;;;-0.70;99.90;;;;;;4998498;28;20049;-71
2021/12/12 05:03:43;;;;;;;52.00;20.85;;;-0.90;99.90;;;;;;4986624;28;20046;-71
2021/12/12 05:06:09;;;;;;;44.28;20.15;;;-0.90;99.90;;;;;;4994733;28;20102;-71
2021/12/12 05:08:34;;;;;;;48.13;21.02;;;-0.80;99.90;;;;;;4996030;28;20108;-72
2021/12/12 05:11:00;;;;;;;47.00;21.90;;;-0.90;99.90;;;;;;5000657;28;20418;-71
2021/12/12 05:13:25;;;;;;;47.80;21.92;;;-1.00;99.90;;;;;;4991080;28;20060;-71
2021/12/12 05:15:51;;;;;;;56.15;22.48;;;-1.00;99.90;;;;;;4999620;28;20120;-72
2021/12/12 05:18:18;;;;;;;48.30;21.63;;;-0.90;99.90;;;;;;4975239;28;20033;-71
2021/12/12 05:20:44;;;;;;;47.10;21.48;;;-1.00;99.90;;;;;;4994622;28;20133;-71
2021/12/12 05:23:09;;;;;;;51.72;23.02;;;-0.90;99.90;;;;;;4992447;28;20071;-71
2021/12/12 05:25:35;;;;;;;44.17;20.40;;;-1.00;99.90;;;;;;4991622;28;20030;-71
2021/12/12 05:28:00;;;;;;;52.22;22.98;;;-0.80;99.90;;;;;;5001717;28;20861;-71
2021/12/12 05:30:26;;;;;;;50.13;23.08;;;-0.90;99.90;;;;;;4990270;28;20045;-71
2021/12/12 05:32:51;;;;;;;50.95;21.40;;;-0.90;99.90;;;;;;5001124;28;20068;-71
2021/12/12 05:35:17;;;;;;;47.33;21.23;;;-0.90;99.90;;;;;;4999568;28;20034;-72
2021/12/12 05:37:42;;;;;;;49.42;21.25;;;-1.10;99.90;;;;;;4990001;28;20452;-71
2021/12/12 05:40:08;;;;;;;52.80;23.52;;;-0.80;99.90;;;;;;5000875;28;20026;-71
2021/12/12 05:42:33;;;;;;;50.75;21.95;;;-1.00;99.90;;;;;;4992944;28;20046;-71
2021/12/12 05:44:59;;;;;;;51.83;22.67;;;-1.10;99.90;;;;;;4999853;28;20030;-70
2021/12/12 05:47:24;;;;;;;53.65;22.67;;;-0.80;99.90;;;;;;4998555;28;20021;-71
2021/12/12 05:49:50;;;;;;;55.33;23.02;;;-1.10;99.90;;;;;;4989633;28;20034;-71
2021/12/12 05:52:15;;;;;;;51.58;23.17;;;-1.00;99.90;;;;;;4989395;28;20038;-70
2021/12/12 05:54:41;;;;;;;52.05;21.75;;;-0.70;99.90;;;;;;4994938;28;20092;-71
2021/12/12 05:57:07;;;;;;;54.90;24.13;;;-0.90;99.90;;;;;;5000579;28;20025;-71
2021/12/12 05:59:33;;;;;;;61.60;23.75;;;-0.80;99.90;;;;;;4995266;28;20038;-71
2021/12/12 06:01:58;;;;;;;53.75;23.08;;;-0.80;99.90;;;;;;4995196;28;20021;-71
2021/12/12 06:04:24;;;;;;;56.25;24.25;;;-0.80;99.90;;;;;;4996616;28;20869;-71
2021/12/12 06:06:49;;;;;;;55.10;23.60;;;-0.80;99.90;;;;;;5001969;28;20037;-71
2021/12/12 06:09:15;;;;;;;61.50;23.75;;;-0.80;99.90;;;;;;4994106;28;20895;-71
2021/12/12 06:11:40;;;;;;;57.67;25.00;;;-1.00;99.90;;;;;;4982047;28;20083;-71
2021/12/12 06:14:06;;;;;;;51.35;22.45;;;-0.90;99.90;;;;;;4996922;28;20482;-70
2021/12/12 06:16:32;;;;;;;47.78;22.55;;;-1.80;99.90;;;;;;4991665;28;20041;-71
2021/12/12 06:18:57;;;;;;;48.42;22.63;;;-0.70;99.90;;;;;;4994420;28;20029;-71
2021/12/12 06:21:23;;;;;;;46.03;21.98;;;-0.80;99.90;;;;;;4998533;28;20099;-71
2021/12/12 06:23:48;;;;;;;51.38;22.83;;;-1.40;99.90;;;;;;4997867;28;20042;-71
2021/12/12 06:26:14;;;;;;;46.38;21.50;;;-0.70;99.90;;;;;;4997634;28;20112;-71
2021/12/12 06:28:39;;;;;;;49.13;22.42;;;-1.00;99.90;;;;;;4994691;28;20206;-71
2021/12/12 06:31:05;;;;;;;60.08;23.98;;;-0.90;99.90;;;;;;4996352;28;20030;-71
2021/12/12 06:33:31;;;;;;;49.90;22.08;;;-0.80;99.90;;;;;;5003483;28;20038;-71
2021/12/12 06:35:57;;;;;;;51.65;21.25;;;;;;;;;;5000966;28;20454;-71
2021/12/12 06:38:22;;;;;;;52.67;22.27;;;-0.80;99.90;;;;;;4996252;28;20800;-71
2021/12/12 06:40:48;;;;;;;50.42;21.48;;;-0.50;99.90;;;;;;5000591;28;20057;-71
2021/12/12 06:43:13;;;;;;;53.88;21.60;;;-0.60;99.90;;;;;;4977920;28;20084;-70
2021/12/12 06:45:39;;;;;;;50.50;21.25;;;-0.50;99.90;;;;;;5001045;28;20725;-71
2021/12/12 06:48:04;;;;;;;49.35;22.00;;;-0.60;99.90;;;;;;4995462;28;20480;-71
2021/12/12 06:50:29;;;;;;;44.70;21.15;;;-0.60;99.90;;;;;;4994253;28;20061;-71
2021/12/12 06:52:55;;;;;;;49.40;20.30;;;-0.80;99.90;;;;;;4989991;28;20042;-71
2021/12/12 06:55:20;;;;;;;50.25;21.58;;;-0.70;99.90;;;;;;4992658;28;20035;-71
2021/12/12 06:57:46;;;;;;;45.08;20.45;;;-0.50;99.90;;;;;;4999102;28;20494;-71
2021/12/12 07:00:11;;;;;;;49.45;21.13;;;-0.60;99.90;;;;;;4993790;28;20030;-70
2021/12/12 07:02:37;;;;;;;48.92;20.88;;;-0.70;99.90;;;;;;4997581;28;20504;-70
2021/12/12 07:05:03;;;;;;;50.65;21.17;;;;;;;;;;4999259;28;20037;-71
2021/12/12 07:07:29;;;;;;;43.50;18.58;;;;;;;;;;4993249;28;20042;-70
2021/12/12 07:09:55;;;;;;;41.30;18.30;;;;;;;;;;4997214;28;20053;-70
2021/12/12 07:12:22;;;;;;;41.97;19.05;;;-0.30;99.90;;;;;;4994950;28;20026;-70
2021/12/12 07:14:48;;;;;;;45.28;19.05;;;-0.50;99.90;;;;;;5000639;28;20096;-70
2021/12/12 07:17:13;;;;;;;46.42;19.83;;;-0.60;99.90;;;;;;4995153;28;20044;-71
2021/12/12 07:19:40;;;;;;;43.28;19.20;;;-0.30;99.90;;;;;;4999528;28;20037;-70
2021/12/12 07:22:05;;;;;;;49.03;20.77;;;-0.60;99.90;;;;;;4995407;28;20375;-70
2021/12/12 07:24:31;;;;;;;52.85;20.25;;;-0.20;99.90;;;;;;4993819;28;20050;-71
2021/12/12 07:26:58;;;;;;;57.75;21.63;;;-0.40;99.90;;;;;;4998952;28;20168;-71
2021/12/12 07:29:23;;;;;;;47.55;20.90;;;-0.10;99.90;;;;;;4997558;28;20041;-71
2021/12/12 07:31:49;;;;;;;49.58;21.15;;;-0.20;99.90;;;;;;4999354;28;20038;-71
2021/12/12 07:34:14;;;;;;;48.33;19.17;;;-0.20;99.90;;;;;;4995376;28;20046;-71
2021/12/12 07:36:40;;;;;;;49.70;19.88;;;-0.20;99.90;;;;;;4997258;28;20038;-71
2021/12/12 07:39:05;;;;;;;45.70;20.35;;;-0.10;99.90;;;;;;4993589;28;20120;-71
2021/12/12 07:41:31;;;;;;;53.25;19.98;;;0.00;99.90;;;;;;4997646;28;20029;-71
2021/12/12 07:43:56;;;;;;;46.55;19.70;;;-0.10;99.90;;;;;;4999694;28;20071;-71
2021/12/12 07:46:22;;;;;;;45.83;19.20;;;-0.10;99.90;;;;;;4996796;28;20576;-71
2021/12/12 07:48:47;;;;;;;39.60;17.80;;;0.80;99.90;;;;;;4992394;28;20073;-71
2021/12/12 07:51:12;;;;;;;42.35;19.15;;;-0.30;99.90;;;;;;5000488;28;20481;-71
2021/12/12 07:53:38;;;;;;;42.30;18.92;;;-0.20;99.90;;;;;;4992093;28;20037;-70
2021/12/12 07:56:03;;;;;;;44.50;19.35;;;-0.10;99.90;;;;;;4986657;28;20577;-71
2021/12/12 07:58:29;;;;;;;45.10;19.50;;;0.00;99.90;;;;;;5003282;28;20129;-71
2021/12/12 08:00:54;;;;;;;43.60;18.60;;;0.00;99.90;;;;;;4994172;28;20042;-71
2021/12/12 08:03:21;;;;;;;46.42;20.10;;;-0.10;99.90;;;;;;4983226;28;20054;-71
2021/12/12 08:05:46;;;;;;;46.35;20.02;;;0.30;99.90;;;;;;4998720;28;20128;-72
2021/12/12 08:08:12;;;;;;;42.70;19.20;;;0.60;99.90;;;;;;5000240;28;20026;-72
2021/12/12 08:10:38;;;;;;;45.63;18.98;;;0.50;99.90;;;;;;4973954;28;20030;-72
2021/12/12 08:13:03;;;;;;;43.65;17.58;;;0.10;99.90;;;;;;4999705;28;20708;-72
2021/12/12 08:15:29;;;;;;;43.15;18.20;;;0.50;99.90;;;;;;5000285;28;20045;-85
2021/12/12 08:17:54;;;;;;;44.05;18.17;;;0.80;99.90;;;;;;5000655;28;20869;-79
2021/12/12 08:20:20;;;;;;;46.15;19.00;;;0.80;99.90;;;;;;4992489;28;20030;-77
2021/12/12 08:22:46;;;;;;;42.10;18.00;;;1.10;99.90;;;;;;5005558;28;20401;-78
2021/12/12 08:25:11;;;;;;;58.65;24.30;;;2.30;99.90;;;;;;4994194;28;20029;-79
2021/12/12 08:27:37;;;;;;;43.72;18.63;;;0.90;99.90;;;;;;4993004;28;20031;-72
2021/12/12 08:30:03;;;;;;;44.78;19.55;;;1.10;99.90;;;;;;4999517;28;20671;-71
2021/12/12 08:32:28;;;;;;;39.20;17.65;;;0.80;99.90;;;;;;4994734;28;20034;-72
2021/12/12 08:34:54;;;;;;;48.15;18.48;;;;;;;;;;4995263;28;20034;-72
2021/12/12 08:37:20;;;;;;;43.50;18.50;;;1.20;99.90;;;;;;4991019;28;20038;-72
2021/12/12 08:39:45;;;;;;;38.10;16.88;;;1.00;99.90;;;;;;4991395;28;20057;-72
2021/12/12 08:42:11;;;;;;;43.47;18.75;;;1.20;99.90;;;;;;4994494;28;20030;-71
2021/12/12 08:44:36;;;;;;;39.33;17.00;;;1.50;99.90;;;;;;4994303;28;20045;-70
2021/12/12 08:47:02;;;;;;;39.88;17.40;;;1.40;99.90;;;;;;4993369;28;20030;-70
2021/12/12 08:49:27;;;;;;;39.30;16.23;;;1.40;99.90;;;;;;4992195;28;20132;-70
2021/12/12 08:51:53;;;;;;;40.47;16.48;;;1.40;99.90;;;;;;4970142;28;20080;-69
2021/12/12 08:54:25;;;;;;;42.83;18.25;;;1.50;99.90;;;;;;4997861;28;20029;-69
2021/12/12 08:56:51;;;;;;;34.40;16.25;;;1.70;99.90;;;;;;5001097;28;20037;-69
2021/12/12 08:59:16;;;;;;;39.00;16.25;;;1.70;99.90;;;;;;4998746;28;20034;-70
2021/12/12 09:01:42;;;;;;;52.42;20.45;;;1.70;99.90;;;;;;4997919;28;20034;-69
2021/12/12 09:04:07;;;;;;;53.28;20.33;;;1.60;99.90;;;;;;4986654;28;20176;-69
2021/12/12 09:06:33;;;;;;;39.22;17.33;;;1.60;99.90;;;;;;4984524;28;20053;-69
2021/12/12 09:08:58;;;;;;;38.60;17.55;;;1.60;99.90;;;;;;4996114;28;20021;-69
2021/12/12 09:11:24;;;;;;;42.45;17.63;;;1.60;99.90;;;;;;4996659;28;20745;-69
2021/12/12 09:13:49;;;;;;;38.22;17.33;;;1.60;99.90;;;;;;4998097;28;20553;-69
2021/12/12 09:16:15;;;;;;;40.40;17.75;;;1.50;99.90;;;;;;4989952;28;20034;-69
2021/12/12 09:18:40;;;;;;;40.33;16.98;;;1.60;99.90;;;;;;4985417;28;20437;-69
2021/12/12 09:21:07;;;;;;;41.35;18.33;;;1.50;99.90;;;;;;4994216;28;20042;-70
2021/12/12 09:23:32;;;;;;;43.65;18.02;;;1.70;99.90;;;;;;4993810;28;20069;-69
2021/12/12 09:25:58;;;;;;;42.33;17.83;;;1.70;99.90;;;;;;4997136;28;20565;-69
2021/12/12 09:28:24;;;;;;;49.20;19.50;;;1.80;99.90;;;;;;4988790;28;20053;-69
2021/12/12 09:30:49;;;;;;;39.65;18.15;;;5.10;99.90;;;;;;5008286;28;20044;-69
2021/12/12 09:33:18;;;;;;;55.17;18.60;;;1.60;99.90;;;;;;4998050;28;20039;-69
2021/12/12 09:35:44;;;;;;;58.38;19.63;;;2.00;99.90;;;;;;4997107;28;20361;-69
2021/12/12 09:38:09;;;;;;;64.07;19.60;;;2.20;99.90;;;;;;4998628;28;20771;-68
2021/12/12 09:40:35;;;;;;;43.15;17.85;;;2.10;99.90;;;;;;4994905;28;20049;-69
2021/12/12 09:43:00;;;;;;;97.68;35.10;;;2.10;99.90;;;;;;4991191;28;20040;-69
2021/12/12 09:45:26;;;;;;;42.63;18.85;;;2.00;99.90;;;;;;4996728;28;20034;-69
2021/12/12 09:53:08;;;;;;;42.92;18.13;;;;;;;;;;5000465;28;20037;-70
2021/12/12 09:55:34;;;;;;;49.72;18.85;;;;;;;;;;4999371;28;20700;-71
2021/12/12 09:57:59;;;;;;;45.05;18.88;;;2.10;99.90;;;;;;4997963;28;20033;-70
2021/12/12 10:00:25;;;;;;;42.65;18.65;;;2.10;99.90;;;;;;4998807;28;20435;-69
2021/12/12 10:02:51;;;;;;;42.63;18.30;;;2.00;99.90;;;;;;5000990;28;21005;-70
2021/12/12 10:05:16;;;;;;;41.08;18.33;;;2.00;99.90;;;;;;4997060;28;20900;-70
2021/12/12 10:07:42;;;;;;;43.42;18.50;;;1.80;99.90;;;;;;4993870;28;20026;-70
2021/12/12 10:10:07;;;;;;;47.05;19.05;;;2.10;99.90;;;;;;4993302;28;20418;-71
2021/12/12 10:12:32;;;;;;;44.40;19.17;;;2.20;99.90;;;;;;5000801;28;20037;-70
2021/12/12 10:14:58;;;;;;;44.35;19.50;;;1.90;99.90;;;;;;4996515;28;20053;-70
2021/12/12 10:17:23;;;;;;;47.45;20.00;;;2.40;99.90;;;;;;5000398;28;20033;-70
2021/12/12 10:19:49;;;;;;;57.45;20.85;;;2.50;99.90;;;;;;4997218;28;20025;-70
2021/12/12 10:22:14;;;;;;;44.17;19.60;;;2.30;99.90;;;;;;4999272;28;20033;-70
2021/12/12 10:24:40;;;;;;;42.75;19.23;;;2.30;99.90;;;;;;4998624;28;20128;-70
2021/12/12 10:27:05;;;;;;;46.38;19.13;;;2.30;99.90;;;;;;4991188;28;20026;-70
2021/12/12 10:29:31;;;;;;;59.45;21.10;;;2.30;99.90;;;;;;4996425;28;20405;-70
2021/12/12 10:31:56;;;;;;;41.88;19.77;;;2.30;99.90;;;;;;4995040;28;20136;-70
2021/12/12 10:34:22;;;;;;;44.25;19.05;;;2.20;99.90;;;;;;5000057;28;20041;-70
2021/12/12 10:36:47;;;;;;;57.17;21.17;;;2.10;99.90;;;;;;4999353;28;20178;-69
2021/12/12 10:39:13;;;;;;;51.50;20.20;;;2.50;99.90;;;;;;4993698;28;20062;-68
2021/12/12 10:41:38;;;;;;;55.25;21.92;;;2.90;99.90;;;;;;4992761;28;20030;-69
2021/12/12 10:44:04;;;;;;;46.00;19.55;;;2.90;99.90;;;;;;4990501;28;20065;-71
2021/12/12 10:46:29;;;;;;;44.67;17.70;;;2.30;99.90;;;;;;5001987;28;20116;-69
2021/12/12 10:48:55;;;;;;;48.85;19.20;;;2.60;99.90;;;;;;5002410;28;20033;-69
2021/12/12 10:51:21;;;;;;;46.97;19.02;;;;;;;;;;5002227;28;20427;-70
2021/12/12 10:53:47;;;;;;;36.78;16.45;;;;;;;;;;4998497;28;20034;-68
2021/12/12 10:56:12;;;;;;;38.90;17.90;;;2.70;99.90;;;;;;4998570;28;20038;-70
2021/12/12 10:58:38;;;;;;;42.25;18.45;;;2.30;99.90;;;;;;4997877;28;20064;-69
2021/12/12 11:01:04;;;;;;;39.30;16.65;;;2.40;99.90;;;;;;5000878;28;20136;-69
2021/12/12 11:03:30;;;;;;;40.90;18.77;;;2.60;99.90;;;;;;5000175;28;20132;-68
2021/12/12 11:05:56;;;;;;;42.55;18.98;;;2.80;99.90;;;;;;5000021;28;20112;-68
2021/12/12 11:08:22;;;;;;;37.72;17.17;;;;;;;;;;4995785;28;20549;-69
2021/12/12 11:10:47;;;;;;;38.90;17.88;;;2.60;99.90;;;;;;4995510;28;20034;-68
2021/12/12 11:13:13;;;;;;;41.20;18.23;;;2.80;99.90;;;;;;4992425;28;20362;-68
2021/12/12 11:15:38;;;;;;;38.75;17.58;;;3.00;99.90;;;;;;4994444;28;20576;-68
2021/12/12 11:18:04;;;;;;;41.15;19.58;;;2.60;99.90;;;;;;4996218;28;20040;-68
2021/12/12 11:20:31;;;;;;;45.08;18.75;;;;;;;;;;4996722;28;20068;-68
2021/12/12 11:22:57;;;;;;;41.10;18.88;;;3.10;99.90;;;;;;4997042;28;20458;-68
2021/12/12 11:25:23;;;;;;;44.70;19.35;;;2.80;99.90;;;;;;4996761;28;20113;-68
2021/12/12 11:27:48;;;;;;;45.30;19.23;;;2.60;99.90;;;;;;5001121;28;20026;-68
2021/12/12 11:30:18;;;;;;;38.42;17.63;;;3.00;99.90;;;;;;4992163;28;20057;-68
2021/12/12 11:32:43;;;;;;;41.15;17.70;;;2.90;99.90;;;;;;5000307;28;20033;-68
2021/12/12 11:35:09;;;;;;;38.67;17.13;;;2.80;99.90;;;;;;4994786;28;20887;-68
2021/12/12 11:37:35;;;;;;;44.05;18.63;;;;;;;;;;4999348;28;20065;-68
2021/12/12 11:40:02;;;;;;;40.53;17.05;;;;;;;;;;4989846;28;20029;-67
2021/12/12 11:42:28;;;;;;;50.10;19.35;;;;;;;;;;4997325;28;20038;-68
2021/12/12 11:44:53;;;;;;;41.35;17.73;;;2.70;99.90;;;;;;4999959;28;20041;-67
2021/12/12 11:47:19;;;;;;;37.67;18.02;;;;;;;;;;5001657;28;20108;-68
2021/12/12 11:49:47;;;;;;;40.70;18.55;;;;;;;;;;4992521;28;20057;-68
2021/12/12 11:52:13;;;;;;;39.03;17.38;;;;;;;;;;4992489;28;20030;-69
2021/12/12 11:54:38;;;;;;;43.17;17.90;;;3.20;99.90;;;;;;4999575;28;20049;-69
2021/12/12 11:57:04;;;;;;;37.13;17.05;;;;;;;;;;4999651;28;20038;-68
2021/12/12 11:59:30;;;;;;;37.63;16.50;;;3.00;99.90;;;;;;4994243;28;20038;-69
2021/12/12 12:01:56;;;;;;;35.28;16.70;;;;;;;;;;4999884;28;20049;-69
2021/12/12 12:04:22;;;;;;;37.35;16.90;;;;;;;;;;4997728;28;20697;-69
2021/12/12 12:06:48;;;;;;;31.83;15.95;;;;;;;;;;4998359;28;20441;-69
2021/12/12 12:09:14;;;;;;;34.17;15.95;;;;;;;;;;4998023;28;20022;-69
2021/12/12 12:11:40;;;;;;;35.40;16.55;;;;;;;;;;4995838;28;20042;-69
2021/12/12 12:14:06;;;;;;;38.45;16.30;;;;;;;;;;4995775;28;20041;-69
2021/12/12 12:16:32;;;;;;;36.50;16.15;;;;;;;;;;4998820;28;20034;-69
2021/12/12 12:18:58;;;;;;;35.58;15.43;;;;;;;;;;4995343;28;20535;-69
2021/12/12 12:21:24;;;;;;;38.35;16.73;;;2.70;99.90;;;;;;4996416;28;20038;-69
2021/12/12 12:26:51;;;;;;;39.80;16.27;;;2.50;99.90;;;;;;4992637;28;20045;-68
2021/12/12 12:29:17;;;;;;;31.17;14.50;;;;;;;;;;4991294;28;20053;-69
2021/12/12 12:31:43;;;;;;;37.97;15.02;;;;;;;;;;4997633;28;20822;-69
2021/12/12 12:34:09;;;;;;;33.17;14.95;;;;;;;;;;4998782;28;20458;-69
2021/12/12 12:36:35;;;;;;;38.72;15.45;;;;;;;;;;4993612;28;20065;-69
2021/12/12 12:39:01;;;;;;;36.03;15.52;;;;;;;;;;4997270;28;20077;-69
2021/12/12 12:41:27;;;;;;;35.97;15.48;;;;;;;;;;4999490;28;20119;-69
2021/12/12 12:43:52;;;;;;;34.72;14.90;;;;;;;;;;4993130;28;20600;-68
2021/12/12 12:46:18;;;;;;;33.42;13.77;;;;;;;;;;5001344;28;20527;-68
2021/12/12 12:48:44;;;;;;;35.88;14.90;;;;;;;;;;4989351;28;20910;-69
2021/12/12 12:51:10;;;;;;;33.70;13.93;;;;;;;;;;4997833;28;20112;-68
2021/12/12 12:53:38;;;;;;;31.88;14.35;;;;;;;;;;4992520;28;20092;-70
2021/12/12 12:56:04;;;;;;;31.63;13.77;;;;;;;;;;4998712;28;20088;-69
2021/12/12 12:58:30;;;;;;;33.17;14.93;;;;;;;;;;4994141;28;20057;-69
2021/12/12 13:00:56;;;;;;;34.17;15.40;;;;;;;;;;4997097;28;20029;-69
2021/12/12 13:03:22;;;;;;;31.35;13.40;;;;;;;;;;4997866;28;20044;-69
2021/12/12 13:05:49;;;;;;;35.80;15.50;;;;;;;;;;5000981;28;20106;-69